createdAt,value
2022-11-13T00:00:55.754Z,99.90
2022-11-13T00:03:23.102Z,99.90
2022-11-13T00:06:01.784Z,99.90
2022-11-13T00:08:28.791Z,99.90
2022-11-13T00:11:24.994Z,99.90
2022-11-13T00:13:51.572Z,99.90
2022-11-13T00:16:20.685Z,99.90
2022-11-13T00:18:47.978Z,99.90
2022-11-13T00:21:20.710Z,99.90
2022-11-13T00:23:47.525Z,99.90
2022-11-13T00:26:20.020Z,99.90
2022-11-13T00:28:47.187Z,99.90
2022-11-13T00:31:15.383Z,99.90
2022-11-13T00:36:29.353Z,99.90
2022-11-13T00:38:56.378Z,99.90
2022-11-13T00:41:23.807Z,99.90
2022-11-13T00:43:51.193Z,99.90
2022-11-13T00:46:17.909Z,99.90
2022-11-13T00:48:44.586Z,99.90
2022-11-13T00:51:11.611Z,99.90
2022-11-13T00:53:38.180Z,99.90
2022-11-13T00:56:05.166Z,99.90
2022-11-13T00:58:32.048Z,99.90
2022-11-13T01:01:08.874Z,99.90
2022-11-13T01:03:35.956Z,99.90
2022-11-13T01:06:10.627Z,99.90
2022-11-13T01:08:37.246Z,99.90
2022-11-13T01:11:12.380Z,99.90
2022-11-13T01:13:44.403Z,99.90
2022-11-13T01:16:13.025Z,99.90
2022-11-13T01:18:41.214Z,99.90
2022-11-13T01:21:16.574Z,99.90
2022-11-13T01:23:43.170Z,99.90
2022-11-13T01:26:13.790Z,99.90
2022-11-13T01:28:43.479Z,99.90
2022-11-13T01:31:13.321Z,99.90
2022-11-13T01:33:40.012Z,99.90
2022-11-13T01:36:17.464Z,99.90
2022-11-13T01:38:44.169Z,99.90
2022-11-13T01:41:26.006Z,99.90
2022-11-13T01:43:54.315Z,99.90
2022-11-13T01:46:24.360Z,99.90
2022-11-13T01:49:12.096Z,99.90
2022-11-13T01:51:47.320Z,99.90
2022-11-13T01:54:18.519Z,99.90
2022-11-13T01:56:45.181Z,99.90
2022-11-13T01:59:20.069Z,99.90
2022-11-13T02:01:46.898Z,99.90
2022-11-13T02:04:13.486Z,99.90
2022-11-13T02:07:01.550Z,99.90
2022-11-13T02:09:35.817Z,99.90
2022-11-13T02:12:05.579Z,99.90
2022-11-13T02:14:33.525Z,99.90
2022-11-13T02:17:04.223Z,99.90
2022-11-13T02:19:38.102Z,99.90
2022-11-13T02:22:14.357Z,99.90
2022-11-13T02:24:45.504Z,99.90
2022-11-13T02:27:36.761Z,99.90
2022-11-13T02:30:16.174Z,99.90
2022-11-13T02:32:48.488Z,99.90
2022-11-13T02:35:37.632Z,99.90
2022-11-13T02:38:05.743Z,99.90
2022-11-13T02:40:33.637Z,99.90
2022-11-13T02:43:00.277Z,99.90
2022-11-13T02:45:26.860Z,99.90
2022-11-13T02:47:53.476Z,99.90
2022-11-13T02:50:20.191Z,99.90
2022-11-13T02:52:46.890Z,99.90
2022-11-13T02:55:14.109Z,99.90
2022-11-13T02:57:40.653Z,99.90
2022-11-13T03:00:12.381Z,99.90
2022-11-13T03:02:41.114Z,99.90
2022-11-13T03:05:13.362Z,99.90
2022-11-13T03:07:41.014Z,99.90
2022-11-13T03:10:08.834Z,99.90
2022-11-13T03:12:35.409Z,99.90
2022-11-13T03:15:02.129Z,99.90
2022-11-13T03:17:31.715Z,99.90
2022-11-13T03:19:58.317Z,99.90
2022-11-13T03:22:25.437Z,99.90
2022-11-13T03:24:52.082Z,99.90
2022-11-13T03:27:19.376Z,99.90
2022-11-13T03:29:45.937Z,99.90
2022-11-13T03:32:12.510Z,99.90
2022-11-13T03:34:39.167Z,99.90
2022-11-13T03:37:05.985Z,99.90
2022-11-13T03:39:32.685Z,99.90
2022-11-13T03:41:59.261Z,99.90
2022-11-13T03:44:25.838Z,99.90
2022-11-13T03:46:52.395Z,99.90
2022-11-13T03:49:19.122Z,99.90
2022-11-13T03:51:45.705Z,99.90
2022-11-13T03:54:12.390Z,99.90
2022-11-13T03:56:38.965Z,99.90
2022-11-13T03:59:05.511Z,99.90
2022-11-13T04:01:32.143Z,99.90
2022-11-13T04:03:58.768Z,99.90
2022-11-13T04:06:25.396Z,99.90
2022-11-13T04:08:52.011Z,99.90
2022-11-13T04:11:18.557Z,99.90
2022-11-13T04:13:45.092Z,99.90
2022-11-13T04:16:11.677Z,99.90
2022-11-13T04:18:38.276Z,99.90
2022-11-13T04:21:05.582Z,99.90
2022-11-13T04:23:32.304Z,99.90
2022-11-13T04:25:59.175Z,99.90
2022-11-13T04:28:26.011Z,99.90
2022-11-13T04:30:56.280Z,99.90
2022-11-13T04:33:22.909Z,99.90
2022-11-13T04:35:49.593Z,99.90
2022-11-13T04:38:16.219Z,99.90
2022-11-13T04:40:43.528Z,99.90
2022-11-13T04:43:10.083Z,99.90
2022-11-13T04:45:36.734Z,99.90
2022-11-13T04:48:03.496Z,99.90
2022-11-13T04:50:30.108Z,99.90
2022-11-13T04:52:56.747Z,99.90
2022-11-13T04:55:23.386Z,99.90
2022-11-13T04:57:51.542Z,99.90
2022-11-13T05:00:18.448Z,99.90
2022-11-13T05:02:45.053Z,99.90
2022-11-13T05:05:11.721Z,99.90
2022-11-13T05:07:38.401Z,99.90
2022-11-13T05:10:05.786Z,99.90
2022-11-13T05:12:32.394Z,99.90
2022-11-13T05:14:58.940Z,99.90
2022-11-13T05:17:25.575Z,99.90
2022-11-13T05:19:52.143Z,99.90
2022-11-13T05:22:18.726Z,99.90
2022-11-13T05:24:45.315Z,99.90
2022-11-13T05:27:17.080Z,99.90
2022-11-13T05:29:44.257Z,99.90
2022-11-13T05:32:10.861Z,99.90
2022-11-13T05:34:37.533Z,99.90
2022-11-13T05:37:04.119Z,99.90
2022-11-13T05:39:30.734Z,99.90
2022-11-13T05:41:57.282Z,99.90
2022-11-13T05:44:23.832Z,99.90
2022-11-13T05:46:50.512Z,99.90
2022-11-13T05:49:17.081Z,99.90
2022-11-13T05:51:43.690Z,99.90
2022-11-13T05:54:11.197Z,99.90
2022-11-13T05:56:37.923Z,99.90
2022-11-13T05:59:05.446Z,99.90
2022-11-13T06:01:38.026Z,99.90
2022-11-13T06:04:06.208Z,99.90
2022-11-13T06:06:33.780Z,99.90
2022-11-13T06:09:02.632Z,99.90
2022-11-13T06:11:30.386Z,99.90
2022-11-13T06:13:58.430Z,99.90
2022-11-13T06:16:34.501Z,99.90
2022-11-13T06:19:03.510Z,99.90
2022-11-13T06:21:32.342Z,99.90
2022-11-13T06:23:59.967Z,99.90
2022-11-13T06:26:32.139Z,99.90
2022-11-13T06:29:01.128Z,99.90
2022-11-13T06:31:30.146Z,99.90
2022-11-13T06:33:59.092Z,99.90
2022-11-13T06:36:31.510Z,99.90
2022-11-13T06:38:58.525Z,99.90
2022-11-13T06:41:31.128Z,99.90
2022-11-13T06:44:02.677Z,99.90
2022-11-13T06:46:30.644Z,99.90
2022-11-13T06:48:58.022Z,99.90
2022-11-13T06:51:27.034Z,99.90
2022-11-13T06:53:54.207Z,99.90
2022-11-13T06:56:21.301Z,99.90
2022-11-13T06:58:55.925Z,99.90
2022-11-13T07:01:24.397Z,99.90
2022-11-13T07:03:51.143Z,99.90
2022-11-13T07:06:21.445Z,99.90
2022-11-13T07:08:48.461Z,99.90
2022-11-13T07:11:18.242Z,99.90
2022-11-13T07:13:45.620Z,99.90
2022-11-13T07:16:17.548Z,99.90
2022-11-13T07:18:54.294Z,99.90
2022-11-13T07:21:21.883Z,99.90
2022-11-13T07:23:50.120Z,99.90
2022-11-13T07:26:17.472Z,99.90
2022-11-13T07:28:44.371Z,99.90
2022-11-13T07:31:12.917Z,99.90
2022-11-13T07:33:39.476Z,99.90
2022-11-13T07:36:06.655Z,99.90
2022-11-13T07:38:33.226Z,99.90
2022-11-13T07:41:00.438Z,99.90
2022-11-13T07:43:27.111Z,99.90
2022-11-13T07:45:54.646Z,99.90
2022-11-13T07:48:22.521Z,99.90
2022-11-13T07:50:49.437Z,99.90
2022-11-13T07:53:17.282Z,99.90
2022-11-13T07:55:43.834Z,99.90
2022-11-13T07:58:10.771Z,99.90
2022-11-13T08:00:37.797Z,99.90
2022-11-13T08:03:06.863Z,99.90
2022-11-13T08:05:33.736Z,99.90
2022-11-13T08:08:00.827Z,99.90
2022-11-13T08:10:27.615Z,99.90
2022-11-13T08:13:02.534Z,99.90
2022-11-13T08:15:30.655Z,99.90
2022-11-13T08:17:58.656Z,99.90
2022-11-13T08:20:26.669Z,99.90
2022-11-13T08:22:56.022Z,99.90
2022-11-13T08:25:22.583Z,99.90
2022-11-13T08:27:49.139Z,99.90
2022-11-13T08:30:15.928Z,99.90
2022-11-13T08:32:42.550Z,99.90
2022-11-13T08:35:09.510Z,99.90
2022-11-13T08:37:36.058Z,99.90
2022-11-13T08:40:02.662Z,99.90
2022-11-13T08:42:29.259Z,99.90
2022-11-13T08:44:55.811Z,99.90
2022-11-13T08:47:26.894Z,99.90
2022-11-13T08:49:56.297Z,99.90
2022-11-13T08:52:23.306Z,99.90
2022-11-13T08:54:50.047Z,99.90
2022-11-13T08:57:16.822Z,99.90
2022-11-13T08:59:43.387Z,99.90
2022-11-13T09:02:14.185Z,99.90
2022-11-13T09:04:41.290Z,99.90
2022-11-13T09:07:07.968Z,99.90
2022-11-13T09:09:34.595Z,99.90
2022-11-13T09:12:01.216Z,99.90
2022-11-13T09:14:28.103Z,99.90
2022-11-13T09:16:54.665Z,99.90
2022-11-13T09:19:21.235Z,99.90
2022-11-13T09:21:47.853Z,99.90
2022-11-13T09:24:14.447Z,99.90
2022-11-13T09:26:41.146Z,99.90
2022-11-13T09:29:07.819Z,99.90
2022-11-13T09:31:34.458Z,99.90
2022-11-13T09:34:01.010Z,99.90
2022-11-13T09:36:27.677Z,99.90
2022-11-13T09:38:54.248Z,99.90
2022-11-13T09:41:29.454Z,99.90
2022-11-13T09:44:01.535Z,99.90
2022-11-13T09:46:43.660Z,99.90
2022-11-13T09:49:16.474Z,99.90
2022-11-13T09:51:56.381Z,99.90
2022-11-13T09:54:23.676Z,99.90
2022-11-13T09:57:15.760Z,99.90
2022-11-13T10:00:21.077Z,99.90
2022-11-13T10:03:01.100Z,99.90
2022-11-13T10:06:10.610Z,99.90
2022-11-13T10:08:46.165Z,99.90
2022-11-13T10:11:18.827Z,99.80
2022-11-13T10:13:49.319Z,99.90
2022-11-13T10:16:57.160Z,99.90
2022-11-13T10:19:56.444Z,98.60
2022-11-13T10:22:39.202Z,99.90
2022-11-13T10:25:19.490Z,98.40
2022-11-13T10:28:35.016Z,99.90
2022-11-13T10:30:55.755Z,97.20
2022-11-13T10:33:23.461Z,98.30
2022-11-13T10:36:04.013Z,99.90
2022-11-13T10:38:33.394Z,98.00
2022-11-13T10:41:18.863Z,96.70
2022-11-13T10:43:56.109Z,96.40
2022-11-13T10:46:29.881Z,97.10
2022-11-13T10:48:57.709Z,95.40
2022-11-13T10:51:30.367Z,96.20
2022-11-13T10:53:58.817Z,95.60
2022-11-13T10:56:29.590Z,95.20
2022-11-13T10:59:19.526Z,94.30
2022-11-13T11:01:47.592Z,97.60
2022-11-13T11:04:19.849Z,94.90
2022-11-13T11:09:38.350Z,96.10
2022-11-13T11:12:17.106Z,95.50
2022-11-13T11:15:01.598Z,96.90
2022-11-13T11:17:45.507Z,97.70
2022-11-13T11:20:44.912Z,97.60
2022-11-13T11:23:39.589Z,99.90
2022-11-13T11:26:17.252Z,99.60
2022-11-13T11:28:51.077Z,96.50
2022-11-13T11:31:32.503Z,96.40
2022-11-13T11:34:20.051Z,98.50
2022-11-13T11:36:55.454Z,99.60
2022-11-13T11:39:43.550Z,94.70
2022-11-13T11:42:16.853Z,97.80
2022-11-13T11:44:57.197Z,93.50
2022-11-13T11:47:24.087Z,93.90
2022-11-13T11:49:50.770Z,94.20
2022-11-13T11:52:31.492Z,94.50
2022-11-13T11:55:35.701Z,91.20
2022-11-13T11:58:12.691Z,94.40
2022-11-13T12:00:50.962Z,91.10
2022-11-13T12:03:44.719Z,93.90
2022-11-13T12:06:41.712Z,93.00
2022-11-13T12:09:27.736Z,93.80
2022-11-13T12:12:18.819Z,94.30
2022-11-13T12:15:08.638Z,93.70
2022-11-13T12:18:06.439Z,95.00
2022-11-13T12:21:07.655Z,97.10
2022-11-13T12:23:59.905Z,92.90
2022-11-13T12:26:28.670Z,96.30
2022-11-13T12:29:23.971Z,97.70
2022-11-13T12:32:21.348Z,97.20
2022-11-13T12:34:53.295Z,93.40
2022-11-13T12:37:33.254Z,93.50
2022-11-13T12:40:07.133Z,95.40
2022-11-13T12:42:48.187Z,91.60
2022-11-13T12:45:29.498Z,92.10
2022-11-13T12:47:56.069Z,94.80
2022-11-13T12:50:30.238Z,92.30
2022-11-13T12:53:04.476Z,91.20
2022-11-13T12:55:34.780Z,91.30
2022-11-13T12:58:20.145Z,94.10
2022-11-13T13:01:10.584Z,92.50
2022-11-13T13:04:13.364Z,91.90
2022-11-13T13:07:00.424Z,95.00
2022-11-13T13:09:53.479Z,92.30
2022-11-13T13:12:41.932Z,91.60
2022-11-13T13:15:24.928Z,89.70
2022-11-13T13:18:06.184Z,90.20
2022-11-13T13:20:36.580Z,89.20
2022-11-13T13:23:08.266Z,86.60
2022-11-13T13:25:36.063Z,87.60
2022-11-13T13:28:07.137Z,81.00
2022-11-13T13:30:48.026Z,83.70
2022-11-13T13:33:31.751Z,84.70
2022-11-13T13:36:09.705Z,83.80
2022-11-13T13:38:52.124Z,85.90
2022-11-13T13:41:25.783Z,82.10
2022-11-13T13:43:56.598Z,80.40
2022-11-13T13:46:28.034Z,83.20
2022-11-13T13:49:02.254Z,83.30
2022-11-13T13:51:34.110Z,83.50
2022-11-13T13:54:05.103Z,81.30
2022-11-13T13:56:32.569Z,78.90
2022-11-13T13:59:00.111Z,80.80
2022-11-13T14:01:32.438Z,79.80
2022-11-13T14:04:15.086Z,77.30
2022-11-13T14:06:49.962Z,78.60
2022-11-13T14:09:19.907Z,75.10
2022-11-13T14:11:47.856Z,78.00
2022-11-13T14:14:22.933Z,77.10
2022-11-13T14:16:52.108Z,78.30
2022-11-13T14:19:19.133Z,76.50
2022-11-13T14:21:48.866Z,77.60
2022-11-13T14:24:25.692Z,77.70
2022-11-13T14:26:54.338Z,77.30
2022-11-13T14:29:35.324Z,78.60
2022-11-13T14:32:10.420Z,78.20
2022-11-13T14:34:37.817Z,78.60
2022-11-13T14:37:28.623Z,80.20
2022-11-13T14:39:58.155Z,82.60
2022-11-13T14:42:46.295Z,84.10
2022-11-13T14:45:23.356Z,81.50
2022-11-13T14:48:00.693Z,87.00
2022-11-13T14:50:35.916Z,83.70
2022-11-13T14:53:08.074Z,87.90
2022-11-13T14:55:50.107Z,89.00
2022-11-13T14:58:35.075Z,84.10
2022-11-13T15:01:25.080Z,86.20
2022-11-13T15:03:52.559Z,84.70
2022-11-13T15:06:21.675Z,88.10
2022-11-13T15:08:50.300Z,90.00
2022-11-13T15:11:18.591Z,89.00
2022-11-13T15:13:45.782Z,89.50
2022-11-13T15:16:31.310Z,89.00
2022-11-13T15:19:25.138Z,89.20
2022-11-13T15:22:33.626Z,90.10
2022-11-13T15:24:38.325Z,91.20
2022-11-13T15:27:05.798Z,91.70
2022-11-13T15:29:32.799Z,92.30
2022-11-13T15:31:59.373Z,92.80
2022-11-13T15:34:26.739Z,93.70
2022-11-13T15:36:53.305Z,94.20
2022-11-13T15:39:23.904Z,94.70
2022-11-13T15:41:51.655Z,95.10
2022-11-13T15:44:18.302Z,95.40
2022-11-13T15:46:44.930Z,95.80
2022-11-13T15:49:11.488Z,96.40
2022-11-13T15:51:46.326Z,95.80
2022-11-13T15:54:24.783Z,96.40
2022-11-13T15:56:51.334Z,96.60
2022-11-13T15:59:20.951Z,96.60
2022-11-13T16:01:48.071Z,96.40
2022-11-13T16:04:16.241Z,96.60
2022-11-13T16:06:43.936Z,97.00
2022-11-13T16:09:14.028Z,97.30
2022-11-13T16:11:41.704Z,97.50
2022-11-13T16:14:08.874Z,97.60
2022-11-13T16:16:38.455Z,97.80
2022-11-13T16:19:15.485Z,98.00
2022-11-13T16:21:42.040Z,97.80
2022-11-13T16:24:11.512Z,98.30
2022-11-13T16:26:39.424Z,98.20
2022-11-13T16:29:23.899Z,98.10
2022-11-13T16:31:50.909Z,97.90
2022-11-13T16:34:17.552Z,98.10
2022-11-13T16:36:44.465Z,98.10
2022-11-13T16:39:16.359Z,98.10
2022-11-13T16:41:43.112Z,98.10
2022-11-13T16:44:09.693Z,98.20
2022-11-13T16:46:41.503Z,98.20
2022-11-13T16:49:13.446Z,98.10
2022-11-13T16:51:40.061Z,98.20
2022-11-13T16:54:06.802Z,98.20
2022-11-13T16:56:33.401Z,98.10
2022-11-13T16:59:00.012Z,98.60
2022-11-13T17:01:26.649Z,98.80
2022-11-13T17:03:53.355Z,99.20
2022-11-13T17:06:26.416Z,99.10
2022-11-13T17:08:55.467Z,99.30
2022-11-13T17:11:23.460Z,99.10
2022-11-13T17:13:51.360Z,99.80
2022-11-13T17:16:18.079Z,99.40
2022-11-13T17:18:45.190Z,99.60
2022-11-13T17:21:11.812Z,99.80
2022-11-13T17:23:38.442Z,99.90
2022-11-13T17:26:05.511Z,99.90
2022-11-13T17:28:32.403Z,99.90
2022-11-13T17:31:08.184Z,99.90
2022-11-13T17:33:35.239Z,99.90
2022-11-13T17:36:03.301Z,99.90
2022-11-13T17:38:30.591Z,99.90
2022-11-13T17:41:07.952Z,99.90
2022-11-13T17:43:36.509Z,99.90
2022-11-13T17:46:04.520Z,99.90
2022-11-13T17:48:34.660Z,99.90
2022-11-13T17:51:04.347Z,99.90
2022-11-13T17:53:31.918Z,99.90
2022-11-13T17:56:01.158Z,99.90
2022-11-13T17:58:29.008Z,99.90
2022-11-13T18:01:05.003Z,99.90
2022-11-13T18:03:32.131Z,99.90
2022-11-13T18:05:58.764Z,99.90
2022-11-13T18:08:25.294Z,99.90
2022-11-13T18:10:51.889Z,99.90
2022-11-13T18:13:18.495Z,99.90
2022-11-13T18:15:45.142Z,99.90
2022-11-13T18:18:11.687Z,99.90
2022-11-13T18:20:40.121Z,99.90
2022-11-13T18:23:07.034Z,99.90
2022-11-13T18:25:39.487Z,99.90
2022-11-13T18:28:06.434Z,99.90
2022-11-13T18:30:33.037Z,99.90
2022-11-13T18:32:59.640Z,99.90
2022-11-13T18:35:26.280Z,99.90
2022-11-13T18:37:53.034Z,99.90
2022-11-13T18:40:19.625Z,99.90
2022-11-13T18:42:46.252Z,99.90
2022-11-13T18:45:16.160Z,99.90
2022-11-13T18:47:42.831Z,99.90
2022-11-13T18:50:09.680Z,99.90
2022-11-13T18:52:36.240Z,99.90
2022-11-13T18:55:02.911Z,99.90
2022-11-13T18:57:29.617Z,99.90
2022-11-13T18:59:56.192Z,99.90
2022-11-13T19:02:23.169Z,99.90
2022-11-13T19:04:49.784Z,99.90
2022-11-13T19:07:16.363Z,99.90
2022-11-13T19:09:45.887Z,99.90
2022-11-13T19:12:12.489Z,99.90
2022-11-13T19:14:41.829Z,99.90
2022-11-13T19:17:08.459Z,99.90
2022-11-13T19:19:35.070Z,99.90
2022-11-13T19:22:01.647Z,99.90
2022-11-13T19:24:28.213Z,99.90
2022-11-13T19:26:54.769Z,99.90
2022-11-13T19:29:21.336Z,99.90
2022-11-13T19:31:48.684Z,99.90
2022-11-13T19:34:15.288Z,99.90
2022-11-13T19:36:44.768Z,99.90
2022-11-13T19:39:11.541Z,99.90
2022-11-13T19:41:38.222Z,99.90
2022-11-13T19:44:06.403Z,99.90
2022-11-13T19:46:33.951Z,99.90
2022-11-13T19:49:00.519Z,99.90
2022-11-13T19:51:27.732Z,99.90
2022-11-13T19:53:59.213Z,99.90
2022-11-13T19:56:28.202Z,99.90
2022-11-13T19:58:55.414Z,99.90
2022-11-13T20:01:24.487Z,99.90
2022-11-13T20:04:01.508Z,99.90
2022-11-13T20:06:29.518Z,99.90
2022-11-13T20:08:57.499Z,99.90
2022-11-13T20:11:24.078Z,99.90
2022-11-13T20:13:50.681Z,99.90
2022-11-13T20:16:20.704Z,99.90
2022-11-13T20:18:47.962Z,99.90
2022-11-13T20:21:14.569Z,99.90
2022-11-13T20:23:41.327Z,99.90
2022-11-13T20:26:11.024Z,99.90
2022-11-13T20:28:37.602Z,99.90
2022-11-13T20:31:05.638Z,99.90
2022-11-13T20:33:34.523Z,99.90
2022-11-13T20:36:02.733Z,99.90
2022-11-13T20:38:30.182Z,99.90
2022-11-13T20:40:57.278Z,99.90
2022-11-13T20:43:24.388Z,99.90
2022-11-13T20:45:50.914Z,99.90
2022-11-13T20:48:17.542Z,99.90
2022-11-13T20:50:44.651Z,99.90
2022-11-13T20:53:11.275Z,99.90
2022-11-13T20:55:37.834Z,99.90
2022-11-13T20:58:04.443Z,99.90
2022-11-13T21:00:31.084Z,99.90
2022-11-13T21:02:57.756Z,99.90
2022-11-13T21:05:24.334Z,99.90
2022-11-13T21:07:50.914Z,99.90
2022-11-13T21:10:17.551Z,99.90
2022-11-13T21:12:44.116Z,99.90
2022-11-13T21:15:11.249Z,99.90
2022-11-13T21:17:37.917Z,99.90
2022-11-13T21:20:05.339Z,99.90
2022-11-13T21:22:31.908Z,99.90
2022-11-13T21:24:58.452Z,99.90
2022-11-13T21:27:25.003Z,99.90
2022-11-13T21:29:51.558Z,99.90
2022-11-13T21:32:18.156Z,99.90
2022-11-13T21:34:46.347Z,99.90
2022-11-13T21:37:14.218Z,99.90
2022-11-13T21:39:40.779Z,99.90
2022-11-13T21:42:07.398Z,99.90
2022-11-13T21:44:34.121Z,99.90
2022-11-13T21:47:00.700Z,99.90
2022-11-13T21:49:27.327Z,99.90
2022-11-13T21:51:53.903Z,99.90
2022-11-13T21:54:20.450Z,99.90
2022-11-13T21:56:47.058Z,99.90
2022-11-13T21:59:13.754Z,99.90
2022-11-13T22:01:40.393Z,99.90
2022-11-13T22:04:07.156Z,99.90
2022-11-13T22:06:39.535Z,99.90
2022-11-13T22:09:08.022Z,99.90
2022-11-13T22:11:36.492Z,99.90
2022-11-13T22:14:03.939Z,99.90
2022-11-13T22:16:33.707Z,99.90
2022-11-13T22:19:03.356Z,99.90
2022-11-13T22:21:31.091Z,99.90
2022-11-13T22:23:59.151Z,99.90
2022-11-13T22:26:27.551Z,99.90
2022-11-13T22:28:55.215Z,99.90
2022-11-13T22:31:27.574Z,99.90
2022-11-13T22:33:55.324Z,99.90
2022-11-13T22:36:30.032Z,99.90
2022-11-13T22:38:57.456Z,99.90
2022-11-13T22:41:28.450Z,99.90
2022-11-13T22:43:59.548Z,99.90
2022-11-13T22:46:28.327Z,99.90
2022-11-13T22:48:56.215Z,99.90
2022-11-13T22:51:25.650Z,99.90
2022-11-13T22:54:03.496Z,99.90
2022-11-13T22:56:32.125Z,99.90
2022-11-13T22:59:00.810Z,99.90
2022-11-13T23:01:29.874Z,99.90
2022-11-13T23:03:58.156Z,99.90
2022-11-13T23:06:27.288Z,99.90
2022-11-13T23:08:54.685Z,99.90
2022-11-13T23:11:28.662Z,99.90
2022-11-13T23:13:57.439Z,99.90
2022-11-13T23:16:25.905Z,99.90
2022-11-13T23:18:54.789Z,99.90
2022-11-13T23:21:21.806Z,99.90
2022-11-13T23:23:48.457Z,99.90
2022-11-13T23:26:16.389Z,99.90
2022-11-13T23:28:43.201Z,99.90
2022-11-13T23:31:10.328Z,99.90
2022-11-13T23:33:38.196Z,99.90
2022-11-13T23:36:06.842Z,99.90
2022-11-13T23:38:33.575Z,99.90
2022-11-13T23:41:00.938Z,99.90
2022-11-13T23:43:53.915Z,99.90
2022-11-13T23:46:14.999Z,99.90
2022-11-13T23:48:41.582Z,99.90
2022-11-13T23:51:08.218Z,99.90
2022-11-13T23:53:34.857Z,99.90
2022-11-13T23:56:01.583Z,99.90
2022-11-13T23:58:28.434Z,99.90
